Time;durP1;ratioP1;P1;durP2;ratioP2;P2;SDS_P1;SDS_P2;PMS_P1;PMS_P2;Temp;Humidity;BMP_temperature;BMP_pressure;BME280_temperature;BME280_humidity;BME280_pressure;Samples;Min_cycle;Max_cycle;Signal;HPM_P1;HPM_P2
2022/10/11 00:02:13;;;;;;;11.75;4.35;;;;;;;6.66;100.00;102291.19;5067788;28;20056;-48
2022/10/11 00:04:41;;;;;;;12.02;4.72;;;;;;;6.62;100.00;102294.78;5069969;28;20095;-49
2022/10/11 00:07:09;;;;;;;11.93;4.60;;;;;;;6.67;100.00;102295.53;5069905;28;20054;-51
2022/10/11 00:13:44;;;;;;;11.65;4.95;;;;;;;6.63;100.00;102299.97;5061397;22;20529;-50
2022/10/11 00:20:45;;;;;;;11.25;4.80;;;;;;;6.53;100.00;102306.31;5076982;22;20058;-51
2022/10/11 00:23:13;;;;;;;12.82;4.72;;;;;;;6.43;100.00;102300.47;5073557;28;20442;-49
2022/10/11 00:25:41;;;;;;;13.02;5.30;;;;;;;6.40;100.00;102308.38;5073406;28;20083;-50
2022/10/11 00:28:09;;;;;;;13.68;6.25;;;;;;;6.38;100.00;102304.94;5054317;28;20041;-48
2022/10/11 00:30:37;;;;;;;12.25;5.47;;;;;;;6.43;100.00;102309.19;5053894;28;20055;-50
2022/10/11 00:33:05;;;;;;;11.73;4.97;;;;;;;6.43;100.00;102310.91;5050865;28;20164;-49
2022/10/11 00:35:40;;;;;;;13.15;5.35;;;;;;;6.50;100.00;102303.78;5053790;28;20044;-48
2022/10/11 00:38:10;;;;;;;11.32;5.10;;;;;;;6.46;100.00;102308.22;5053891;28;20056;-50
2022/10/11 00:40:38;;;;;;;18.27;5.53;;;;;;;6.39;100.00;102310.16;5053536;28;20053;-49
2022/10/11 00:43:15;;;;;;;12.18;5.20;;;;;;;6.38;100.00;102311.03;5053645;28;20051;-49
2022/10/11 00:46:01;;;;;;;9.73;5.03;;;;;;;6.30;100.00;102314.72;5053275;28;20049;-47
2022/10/11 00:48:36;;;;;;;10.95;4.75;;;;;;;6.29;100.00;102313.88;5051255;28;20053;-48
2022/10/11 00:51:12;;;;;;;10.68;4.50;;;;;;;6.37;100.00;102313.69;5053086;28;20407;-50
2022/10/11 00:53:42;;;;;;;12.30;4.78;;;;;;;6.34;100.00;102311.13;5053005;28;20049;-51
2022/10/11 00:56:15;;;;;;;13.35;5.15;;;;;;;6.32;100.00;102319.00;5052896;28;20124;-52
2022/10/11 00:58:43;;;;;;;12.77;4.85;;;;;;;6.25;100.00;102322.66;5052976;28;20041;-46
2022/10/11 01:01:11;;;;;;;13.57;5.00;;;;;;;6.17;100.00;102329.81;5052858;28;20068;-52
2022/10/11 01:03:40;;;;;;;10.48;4.60;;;;;;;6.21;100.00;102331.47;5050476;28;20156;-45
2022/10/11 01:06:09;;;;;;;12.25;4.90;;;;;;;6.15;100.00;102329.88;5051827;28;20057;-46
2022/10/11 01:08:38;;;;;;;12.27;4.35;;;;;;;6.05;100.00;102336.19;5053008;28;20045;-46
2022/10/11 01:11:12;;;;;;;10.65;4.90;;;;;;;5.99;100.00;102337.19;5053147;28;20041;-47
2022/10/11 01:13:52;;;;;;;12.63;4.43;;;;;;;6.07;100.00;102340.47;5052762;28;20128;-49
2022/10/11 01:16:29;;;;;;;11.30;5.07;;;;;;;6.07;100.00;102343.09;5051175;28;20045;-46
2022/10/11 01:19:06;;;;;;;15.00;5.57;;;;;;;6.00;100.00;102343.25;5051265;28;20048;-46
2022/10/11 01:21:42;;;;;;;12.00;5.15;;;;;;;5.92;100.00;102344.25;5052303;28;20118;-49
2022/10/11 01:24:22;;;;;;;12.63;5.40;;;;;;;6.05;100.00;102344.00;5052041;28;20049;-52
2022/10/11 01:27:28;;;;;;;11.02;4.70;;;;;;;6.04;100.00;102339.69;5052434;28;20061;-49
2022/10/11 01:30:05;;;;;;;10.30;4.70;;;;;;;5.97;100.00;102340.69;5051447;28;20045;-50
2022/10/11 01:32:43;;;;;;;14.88;4.93;;;;;;;5.99;100.00;102344.16;5050737;28;20059;-49
2022/10/11 01:35:20;;;;;;;10.93;4.78;;;;;;;5.88;100.00;102337.38;5052145;28;20892;-51
2022/10/11 01:37:56;;;;;;;13.32;4.40;;;;;;;5.85;100.00;102347.91;5052696;28;20061;-52
2022/10/11 01:40:28;;;;;;;11.27;4.93;;;;;;;5.84;100.00;102353.16;5052059;28;20113;-47
2022/10/11 01:42:57;;;;;;;10.87;4.80;;;;;;;5.90;100.00;102347.78;5051678;28;20066;-53
2022/10/11 01:45:26;;;;;;;13.13;5.43;;;;;;;5.82;100.00;102347.97;5052046;28;20084;-49
2022/10/11 01:48:07;;;;;;;10.40;4.57;;;;;;;5.78;100.00;102359.38;5050163;28;20519;-48
2022/10/11 01:50:39;;;;;;;14.60;4.70;;;;;;;5.84;100.00;102353.16;5052251;28;20106;-54
2022/10/11 01:53:40;;;;;;;11.35;4.93;;;;;;;5.81;100.00;102367.13;5050844;28;20110;-49
2022/10/11 01:56:21;;;;;;;10.55;4.88;;;;;;;5.81;100.00;102355.81;5051892;28;20049;-51
2022/10/11 01:59:05;;;;;;;12.52;5.30;;;;;;;5.73;100.00;102358.59;5051531;28;20496;-49
2022/10/11 02:01:48;;;;;;;13.48;5.15;;;;;;;5.71;100.00;102352.53;5051074;28;20049;-49
2022/10/11 02:04:27;;;;;;;14.38;4.72;;;;;;;5.73;100.00;102364.66;5050181;28;20049;-49
2022/10/11 02:06:59;;;;;;;10.70;5.10;;;;;;;5.78;100.00;102356.75;5050821;28;20099;-47
2022/10/11 02:09:33;;;;;;;11.75;4.50;;;;;;;5.73;100.00;102356.84;5051692;28;20037;-48
2022/10/11 02:12:06;;;;;;;9.18;4.35;;;;;;;5.69;100.00;102357.78;5051707;28;20057;-49
2022/10/11 02:14:39;;;;;;;13.85;5.25;;;;;;;5.74;100.00;102360.34;5050717;28;20053;-47
2022/10/11 02:17:10;;;;;;;13.23;5.35;;;;;;;5.73;100.00;102358.59;5049297;28;20476;-48
2022/10/11 02:19:44;;;;;;;11.80;4.93;;;;;;;5.70;100.00;102363.88;5051360;28;20494;-46
2022/10/11 02:22:20;;;;;;;12.98;5.10;;;;;;;5.71;100.00;102365.59;5051298;28;20049;-48
2022/10/11 02:24:52;;;;;;;13.82;5.72;;;;;;;5.72;100.00;102359.50;5050216;28;20500;-45
2022/10/11 02:27:24;;;;;;;9.60;4.97;;;;;;;5.68;100.00;102363.06;5050855;28;20055;-46
2022/10/11 02:29:55;;;;;;;10.90;4.72;;;;;;;5.70;100.00;102363.88;5051552;28;21003;-49
2022/10/11 02:32:25;;;;;;;9.90;4.72;;;;;;;5.64;100.00;102359.63;5049432;28;20079;-45
2022/10/11 02:34:57;;;;;;;13.77;5.32;;;;;;;5.63;100.00;102375.31;5051440;28;20048;-44
2022/10/11 02:37:30;;;;;;;;;;;;;;;5.67;100.00;102369.16;5051569;28;20067;-44
2022/10/11 02:40:03;;;;;;;11.63;5.15;;;;;;;5.68;100.00;102370.88;5051199;28;19920;-45
2022/10/11 02:42:38;;;;;;;12.70;4.70;;;;;;;5.66;100.00;102372.66;5050818;28;20041;-48
2022/10/11 02:45:12;;;;;;;9.02;4.22;;;;;;;5.71;100.00;102366.47;5050992;28;20094;-48
2022/10/11 02:47:42;;;;;;;12.07;4.97;;;;;;;5.59;100.00;102372.78;5049477;28;20136;-46
2022/10/11 02:50:12;;;;;;;12.73;4.65;;;;;;;5.65;100.00;102366.56;5049373;28;20102;-46
2022/10/11 02:52:40;;;;;;;10.30;4.60;;;;;;;5.66;100.00;102377.88;5051213;28;20111;-49
2022/10/11 02:55:10;;;;;;;12.55;4.65;;;;;;;5.64;100.00;102374.44;5051266;28;20069;-46
2022/10/11 02:57:38;;;;;;;10.88;4.60;;;;;;;5.57;100.00;102371.94;5050606;28;20045;-45
2022/10/11 03:00:07;;;;;;;9.93;4.75;;;;;;;5.53;100.00;102370.28;5051418;28;20045;-46
2022/10/11 03:02:36;;;;;;;11.40;4.57;;;;;;;5.51;100.00;102379.06;5049120;28;20068;-45
2022/10/11 03:05:05;;;;;;;11.57;4.50;;;;;;;5.54;100.00;102377.22;5051088;28;20064;-46
2022/10/11 03:07:34;;;;;;;10.05;4.75;;;;;;;5.58;100.00;102383.25;5052301;28;20060;-46
2022/10/11 03:10:02;;;;;;;11.32;5.03;;;;;;;5.49;100.00;102380.81;5051118;28;20083;-44
2022/10/11 03:12:30;;;;;;;8.30;4.47;;;;;;;5.43;100.00;102379.19;5050235;28;20448;-47
2022/10/11 03:14:58;;;;;;;13.50;4.32;;;;;;;5.43;100.00;102381.81;5050905;28;20057;-44
2022/10/11 03:17:27;;;;;;;9.68;4.03;;;;;;;5.44;100.00;102386.16;5048286;28;20068;-44
2022/10/11 03:20:04;;;;;;;14.15;4.47;;;;;;;5.46;100.00;102386.97;5050493;28;20083;-49
2022/10/11 03:22:34;;;;;;;8.52;4.10;;;;;;;5.34;100.00;102392.41;5050096;28;20045;-49
2022/10/11 03:25:02;;;;;;;10.23;4.40;;;;;;;5.44;100.00;102391.38;5050341;28;20239;-45
2022/10/11 03:27:32;;;;;;;11.60;4.63;;;;;;;5.36;100.00;102396.72;5049737;28;20049;-47
2022/10/11 03:30:00;;;;;;;10.98;4.10;;;;;;;5.32;100.00;102394.19;5050685;28;20511;-46
2022/10/11 03:32:29;;;;;;;11.50;4.47;;;;;;;5.27;100.00;102394.28;5048452;28;20064;-45
2022/10/11 03:34:57;;;;;;;13.55;4.38;;;;;;;5.37;100.00;102393.22;5050329;28;20495;-46
2022/10/11 03:37:25;;;;;;;8.50;3.67;;;;;;;5.20;100.00;102401.34;5050552;28;20056;-45
2022/10/11 03:39:55;;;;;;;8.40;4.13;;;;;;;5.18;100.00;102408.34;5050182;28;20037;-46
2022/10/11 03:42:23;;;;;;;10.07;3.92;;;;;;;5.22;100.00;102415.22;5049836;28;20051;-47
2022/10/11 03:44:51;;;;;;;9.15;3.90;;;;;;;5.26;100.00;102410.81;5049926;28;20106;-45
2022/10/11 03:47:19;;;;;;;10.07;4.00;;;;;;;5.32;100.00;102413.31;5047759;28;20045;-45
2022/10/11 03:49:47;;;;;;;11.00;4.20;;;;;;;5.23;100.00;102416.94;5050025;28;20072;-47
2022/10/11 03:52:15;;;;;;;7.88;3.90;;;;;;;5.23;100.00;102421.31;5050475;28;20045;-46
2022/10/11 03:54:43;;;;;;;10.35;4.30;;;;;;;5.17;100.00;102417.06;5054420;28;20088;-46
2022/10/11 03:57:13;;;;;;;10.98;4.75;;;;;;;5.13;100.00;102422.38;5053832;28;20052;-47
2022/10/11 03:59:41;;;;;;;12.20;4.68;;;;;;;5.18;100.00;102429.22;5054397;28;20077;-50
2022/10/11 04:02:09;;;;;;;10.48;4.15;;;;;;;5.22;100.00;102420.44;5052286;28;20057;-48
2022/10/11 04:04:38;;;;;;;9.65;4.53;;;;;;;5.22;100.00;102425.66;5052788;28;20072;-45
2022/10/11 04:07:06;;;;;;;12.38;4.95;;;;;;;5.34;100.00;102431.53;5053870;28;20049;-45
2022/10/11 04:09:34;;;;;;;11.70;4.57;;;;;;;5.28;100.00;102427.31;5053602;28;20129;-46
2022/10/11 04:12:02;;;;;;;12.02;4.68;;;;;;;5.32;100.00;102426.38;5053316;28;20403;-47
2022/10/11 04:14:32;;;;;;;11.35;4.15;;;;;;;5.31;100.00;102431.59;5053727;28;20045;-47
2022/10/11 04:16:59;;;;;;;10.93;5.25;;;;;;;5.26;100.00;102426.44;5052484;28;20106;-45
2022/10/11 04:19:28;;;;;;;14.93;4.55;;;;;;;5.40;100.00;102416.66;5053125;28;20135;-45
2022/10/11 04:21:56;;;;;;;11.30;4.55;;;;;;;5.39;100.00;102429.72;5053577;28;20049;-50
2022/10/11 04:24:24;;;;;;;10.73;4.72;;;;;;;5.38;100.00;102433.22;5053508;28;20124;-45
2022/10/11 04:26:52;;;;;;;10.57;4.45;;;;;;;5.35;100.00;102433.28;5052518;28;20389;-46
2022/10/11 04:29:20;;;;;;;14.05;4.90;;;;;;;5.35;100.00;102441.09;5053326;28;20055;-45
2022/10/11 04:31:50;;;;;;;13.07;4.75;;;;;;;5.40;100.00;102439.28;5053201;28;20053;-44
2022/10/11 04:34:19;;;;;;;11.48;4.65;;;;;;;5.40;100.00;102442.75;5052365;28;20088;-46
2022/10/11 04:36:47;;;;;;;13.00;4.80;;;;;;;5.46;100.00;102444.38;5053364;28;20045;-44
2022/10/11 04:39:17;;;;;;;13.18;5.15;;;;;;;5.40;100.00;102453.19;5053179;28;20128;-44
2022/10/11 04:41:45;;;;;;;14.52;4.93;;;;;;;5.50;100.00;102446.03;5053467;28;20544;-44
2022/10/11 04:44:13;;;;;;;13.32;5.45;;;;;;;5.50;100.00;102455.63;5052942;28;20052;-50
2022/10/11 04:46:41;;;;;;;10.93;4.82;;;;;;;5.55;100.00;102444.22;5053328;28;20040;-46
2022/10/11 04:49:13;;;;;;;13.93;5.22;;;;;;;5.60;100.00;102451.94;5051004;28;20049;-49
2022/10/11 04:51:42;;;;;;;12.10;4.63;;;;;;;5.62;100.00;102458.00;5053243;28;20049;-48
2022/10/11 04:54:10;;;;;;;11.90;4.80;;;;;;;5.64;100.00;102450.16;5052593;28;20072;-48
2022/10/11 04:56:38;;;;;;;12.48;5.28;;;;;;;5.67;100.00;102450.06;5052634;28;20561;-48
2022/10/11 04:59:06;;;;;;;10.23;4.60;;;;;;;5.68;100.00;102452.66;5053083;28;20132;-47
2022/10/11 05:01:34;;;;;;;14.02;5.40;;;;;;;5.70;100.00;102458.72;5052108;28;20048;-49
2022/10/11 05:04:02;;;;;;;14.93;5.65;;;;;;;5.75;100.00;102458.63;5051521;28;20033;-47
2022/10/11 05:06:32;;;;;;;13.35;4.78;;;;;;;5.75;100.00;102456.00;5052564;28;20053;-45
2022/10/11 05:09:00;;;;;;;10.68;4.97;;;;;;;5.84;100.00;102460.22;5052903;28;20043;-49
2022/10/11 05:11:28;;;;;;;10.32;4.68;;;;;;;5.85;100.00;102452.34;5052669;28;20095;-46
2022/10/11 05:13:56;;;;;;;11.20;4.90;;;;;;;5.81;100.00;102458.53;5052831;28;20527;-47
2022/10/11 05:16:24;;;;;;;11.70;5.18;;;;;;;5.82;100.00;102461.97;5052362;28;20118;-45
2022/10/11 05:18:52;;;;;;;10.20;4.47;;;;;;;5.83;100.00;102458.50;5051676;28;20047;-47
2022/10/11 05:21:22;;;;;;;10.60;4.75;;;;;;;5.88;100.00;102460.13;5052761;28;20045;-45
2022/10/11 05:23:54;;;;;;;7.85;4.43;;;;;;;5.81;100.00;102463.75;5052825;28;20048;-46
2022/10/11 05:26:23;;;;;;;10.30;4.63;;;;;;;5.72;100.00;102480.44;5052662;28;20049;-45
2022/10/11 05:28:51;;;;;;;10.50;4.82;;;;;;;5.63;100.00;102477.13;5052333;28;20045;-48
2022/10/11 05:31:19;;;;;;;9.93;4.90;;;;;;;5.65;100.00;102471.00;5051708;28;20068;-50
2022/10/11 05:33:47;;;;;;;11.60;5.00;;;;;;;5.71;100.00;102463.06;5051290;28;20049;-45
2022/10/11 05:36:15;;;;;;;9.68;4.50;;;;;;;5.79;100.00;102468.13;5052496;28;20045;-46
2022/10/11 05:38:44;;;;;;;10.88;4.50;;;;;;;5.75;100.00;102471.69;5052491;28;20041;-48
2022/10/11 05:41:15;;;;;;;9.85;4.57;;;;;;;5.70;100.00;102473.50;5051766;28;20103;-45
2022/10/11 05:43:44;;;;;;;8.88;4.88;;;;;;;5.69;100.00;102477.88;5052054;28;20106;-46
2022/10/11 05:46:13;;;;;;;13.10;4.18;;;;;;;5.63;100.00;102479.75;5051598;28;20551;-45
2022/10/11 05:48:41;;;;;;;8.80;4.68;;;;;;;5.64;100.00;102469.25;5051411;28;20061;-44
2022/10/11 05:51:11;;;;;;;10.38;4.43;;;;;;;5.58;100.00;102472.84;5052328;28;20052;-46
2022/10/11 05:53:39;;;;;;;9.65;4.80;;;;;;;5.53;100.00;102477.28;5052040;28;20053;-48
2022/10/11 05:56:19;;;;;;;10.05;4.63;;;;;;;5.53;100.00;102487.72;5052365;28;20561;-46
2022/10/11 05:58:48;;;;;;;13.23;4.72;;;;;;;5.58;100.00;102487.66;5051852;28;20044;-47
2022/10/11 06:01:20;;;;;;;11.77;4.63;;;;;;;5.52;100.00;102485.16;5051722;28;20709;-48
2022/10/11 06:03:49;;;;;;;8.65;4.43;;;;;;;5.55;100.00;102490.34;5050638;28;20448;-48
2022/10/11 06:06:17;;;;;;;10.48;4.22;;;;;;;5.57;100.00;102488.53;5051655;28;20053;-47
2022/10/11 06:08:45;;;;;;;10.70;4.55;;;;;;;5.63;100.00;102492.78;5051884;28;20052;-46
2022/10/11 06:11:15;;;;;;;9.15;4.47;;;;;;;5.64;100.00;102490.16;5051751;28;20080;-47
2022/10/11 06:13:44;;;;;;;12.18;5.20;;;;;;;5.56;100.00;102497.25;5052045;28;20068;-46
2022/10/11 06:16:13;;;;;;;10.82;5.05;;;;;;;5.56;100.00;102503.34;5050393;28;20573;-47
2022/10/11 06:18:41;;;;;;;9.60;4.78;;;;;;;5.56;100.00;102503.34;5050555;28;20476;-45
2022/10/11 06:21:09;;;;;;;10.70;4.40;;;;;;;5.51;100.00;102493.91;5050615;28;20441;-50
2022/10/11 06:23:37;;;;;;;12.48;5.47;;;;;;;5.52;100.00;102499.09;5051275;28;20103;-46
2022/10/11 06:26:07;;;;;;;11.55;5.40;;;;;;;5.59;100.00;102505.91;5051091;28;20049;-45
2022/10/11 06:28:37;;;;;;;11.57;5.78;;;;;;;5.71;100.00;102510.06;5051958;28;20064;-45
2022/10/11 06:31:06;;;;;;;15.07;5.43;;;;;;;5.55;100.00;102517.28;5051338;28;20492;-46
2022/10/11 06:33:35;;;;;;;12.20;5.93;;;;;;;5.52;100.00;102519.97;5050503;28;20543;-46
2022/10/11 06:36:06;;;;;;;15.77;6.22;;;;;;;5.50;100.00;102526.94;5051449;28;20044;-46
2022/10/11 06:38:35;;;;;;;11.88;5.50;;;;;;;5.56;100.00;102523.34;5051400;28;20495;-46
2022/10/11 06:41:10;;;;;;;11.65;5.63;;;;;;;5.73;100.00;102521.31;5051276;28;20458;-51
2022/10/11 06:43:39;;;;;;;14.60;6.38;;;;;;;5.70;100.00;102534.44;5051221;28;20120;-49
2022/10/11 06:46:08;;;;;;;13.43;7.20;;;;;;;5.73;100.00;102536.13;5050545;28;20057;-47
2022/10/11 06:48:39;;;;;;;16.08;7.50;;;;;;;5.73;100.00;102541.34;5050070;28;20048;-47
2022/10/11 06:51:10;;;;;;;12.18;6.68;;;;;;;5.79;100.00;102536.00;5049383;28;20511;-48
2022/10/11 06:53:38;;;;;;;15.13;6.47;;;;;;;5.86;100.00;102535.03;5051077;28;20044;-49
2022/10/11 06:56:09;;;;;;;15.80;7.10;;;;;;;6.02;100.00;102540.00;5050759;28;20384;-49
2022/10/11 06:58:38;;;;;;;14.88;6.80;;;;;;;6.31;100.00;102542.00;5050960;28;20484;-48
2022/10/11 07:01:10;;;;;;;13.80;6.65;;;;;;;6.53;100.00;102545.06;5050554;28;20055;-47
2022/10/11 07:03:38;;;;;;;14.00;6.75;;;;;;;6.72;100.00;102544.66;5049522;28;20499;-49
2022/10/11 07:06:08;;;;;;;15.43;6.85;;;;;;;7.01;100.00;102553.59;5051385;28;20477;-48
2022/10/11 07:08:38;;;;;;;17.80;7.65;;;;;;;7.15;100.00;102553.31;5051789;28;20067;-50
2022/10/11 07:11:08;;;;;;;15.48;7.38;;;;;;;7.07;100.00;102556.94;5051784;28;20040;-49
2022/10/11 07:13:37;;;;;;;14.95;7.63;;;;;;;7.07;100.00;102556.09;5050841;28;20502;-53
2022/10/11 07:16:07;;;;;;;13.70;7.55;;;;;;;7.52;100.00;102557.66;5050368;28;20084;-49
2022/10/11 07:18:38;;;;;;;17.05;7.38;;;;;;;7.39;100.00;102554.44;5049367;28;20080;-53
2022/10/11 07:21:08;;;;;;;19.02;7.90;;;;;;;7.67;100.00;102551.16;5011419;28;20092;-53
2022/10/11 07:23:36;;;;;;;15.55;6.65;;;;;;;7.83;100.00;102554.25;5011238;28;20045;-51
2022/10/11 07:26:05;;;;;;;18.58;6.93;;;;;;;7.79;100.00;102556.09;5011093;28;20056;-50
2022/10/11 07:28:35;;;;;;;16.10;6.97;;;;;;;7.69;100.00;102567.69;5009651;28;20206;-50
2022/10/11 07:31:05;;;;;;;16.65;7.60;;;;;;;8.02;100.00;102567.72;5008975;28;20050;-48
2022/10/11 07:33:33;;;;;;;15.88;7.22;;;;;;;8.31;100.00;102560.81;5009595;28;20069;-49
2022/10/11 07:36:03;;;;;;;15.43;7.00;;;;;;;8.37;100.00;102568.50;5010937;28;20041;-50
2022/10/11 07:38:32;;;;;;;14.73;6.90;;;;;;;8.41;100.00;102570.13;5012327;28;20432;-50
2022/10/11 07:41:05;;;;;;;14.73;7.00;;;;;;;8.50;100.00;102566.44;5010940;28;20052;-48
2022/10/11 07:43:33;;;;;;;15.93;6.50;;;;;;;8.44;100.00;102568.28;5010901;28;20062;-47
2022/10/11 07:46:02;;;;;;;17.30;7.22;;;;;;;8.32;100.00;102563.38;5010386;28;20046;-51
2022/10/11 07:48:32;;;;;;;13.50;7.40;;;;;;;8.83;100.00;102561.06;5009411;28;20058;-49
2022/10/11 07:51:07;;;;;;;17.85;7.63;;;;;;;8.99;100.00;102570.19;5010800;28;20038;-52
2022/10/11 07:53:40;;;;;;;14.00;7.10;;;;;;;9.11;100.00;102574.22;5010548;28;20100;-48
2022/10/11 07:56:09;;;;;;;17.10;7.28;;;;;;;9.13;100.00;102572.38;5010705;28;20413;-50
2022/10/11 07:58:37;;;;;;;17.17;7.10;;;;;;;9.26;100.00;102583.38;5010415;28;20457;-51
2022/10/11 08:01:06;;;;;;;19.70;6.45;;;;;;;9.34;100.00;102590.97;5010066;28;20572;-53
2022/10/11 08:03:34;;;;;;;16.75;6.95;;;;;;;9.47;100.00;102592.31;5008919;28;20394;-53
2022/10/11 08:06:05;;;;;;;14.00;6.72;;;;;;;9.79;100.00;102596.50;5010374;28;20054;-49
2022/10/11 08:08:34;;;;;;;15.68;6.57;;;;;;;9.78;100.00;102586.88;5009862;28;20096;-51
2022/10/11 08:11:03;;;;;;;12.52;6.10;;;;;;;9.96;100.00;102585.38;5010296;28;20417;-50
2022/10/11 08:13:32;;;;;;;18.27;6.45;;;;;;;9.94;100.00;102586.38;5009939;28;20516;-49
2022/10/11 08:16:00;;;;;;;13.70;6.15;;;;;;;10.13;100.00;102587.44;5009949;28;20056;-52
2022/10/11 08:18:29;;;;;;;17.83;6.72;;;;;;;10.23;100.00;102592.38;5008749;28;20042;-49
2022/10/11 08:20:57;;;;;;;16.60;6.72;;;;;;;10.48;100.00;102587.09;5047271;28;20143;-51
2022/10/11 08:23:26;;;;;;;15.70;5.97;;;;;;;10.57;100.00;102593.81;5049235;28;20033;-51
2022/10/11 08:25:57;;;;;;;13.55;6.35;;;;;;;10.75;100.00;102595.72;5050246;28;20567;-50
2022/10/11 08:28:25;;;;;;;18.80;5.95;;;;;;;10.82;100.00;102599.84;5049532;28;20045;-53
2022/10/11 08:30:54;;;;;;;12.95;5.97;;;;;;;10.99;100.00;102599.19;5049517;28;20048;-51
2022/10/11 08:33:24;;;;;;;15.65;5.75;;;;;;;11.18;100.00;102600.25;5048336;28;20045;-50
2022/10/11 08:35:53;;;;;;;11.32;4.95;;;;;;;11.29;100.00;102598.06;5049895;28;20033;-51
2022/10/11 08:38:22;;;;;;;11.38;4.55;;;;;;;11.08;100.00;102610.28;5050135;28;20083;-49
2022/10/11 08:40:54;;;;;;;14.10;5.18;;;;;;;11.35;100.00;102607.47;5053538;28;20053;-51
2022/10/11 08:43:35;;;;;;;15.85;5.07;;;;;;;11.50;100.00;102607.69;5053157;28;20041;-50
2022/10/11 08:46:06;;;;;;;10.80;4.38;;;;;;;11.97;100.00;102611.94;5053424;28;20053;-51
2022/10/11 08:48:38;;;;;;;12.82;4.68;;;;;;;12.10;100.00;102608.75;5052004;28;20092;-52
2022/10/11 08:51:13;;;;;;;12.65;4.78;;;;;;;12.28;100.00;102607.94;5053548;28;20522;-50
2022/10/11 08:53:51;;;;;;;14.90;5.00;;;;;;;12.36;100.00;102612.03;5053311;28;20037;-48
2022/10/11 08:56:25;;;;;;;11.50;4.63;;;;;;;12.41;100.00;102602.16;5053179;28;20037;-52
2022/10/11 08:58:57;;;;;;;17.92;5.18;;;;;;;12.45;100.00;102606.34;5052835;28;20037;-52
2022/10/11 09:01:28;;;;;;;15.57;5.40;;;;;;;12.43;100.00;102609.03;5052618;28;20491;-50
2022/10/11 09:03:58;;;;;;;10.80;4.32;;;;;;;12.39;100.00;102603.97;5051631;28;20506;-53
2022/10/11 09:06:39;;;;;;;13.02;4.70;;;;;;;12.57;100.00;102613.72;5052814;28;20103;-53
2022/10/11 09:09:23;;;;;;;20.02;5.68;;;;;;;12.76;100.00;102612.84;5053068;28;20390;-53
2022/10/11 09:12:05;;;;;;;12.30;5.65;;;;;;;12.81;100.00;102614.34;5052694;28;20388;-53
2022/10/11 09:14:53;;;;;;;12.70;5.07;;;;;;;12.97;100.00;102614.50;5052608;28;20053;-52
2022/10/11 09:17:32;;;;;;;13.77;5.63;;;;;;;13.02;100.00;102617.78;5051230;28;20049;-53
2022/10/11 09:20:21;;;;;;;16.88;5.50;;;;;;;13.18;100.00;102622.31;5052344;28;20071;-50
2022/10/11 09:22:57;;;;;;;15.70;5.40;;;;;;;13.33;100.00;102610.16;5052947;28;20037;-47
2022/10/11 09:25:31;;;;;;;15.90;5.75;;;;;;;13.48;100.00;102619.16;5052410;28;20091;-48
2022/10/11 09:28:10;;;;;;;17.15;5.15;;;;;;;13.62;100.00;102621.09;5050982;28;20110;-50
2022/10/11 09:30:46;;;;;;;18.50;4.50;;;;;;;13.81;100.00;102615.75;5052798;28;20358;-47
2022/10/11 09:33:19;;;;;;;17.20;5.28;;;;;;;13.97;100.00;102621.13;5050986;28;20045;-51
2022/10/11 09:35:47;;;;;;;;;;;;;;;14.22;100.00;102623.34;5052756;28;20110;-52
2022/10/11 09:38:27;;;;;;;14.40;4.05;;;;;;;14.47;100.00;102625.53;5051957;28;19998;-55
2022/10/11 09:41:06;;;;;;;12.77;3.58;;;;;;;14.67;100.00;102623.63;5052168;28;20114;-51
2022/10/11 09:43:35;;;;;;;14.63;4.13;;;;;;;14.92;100.00;102622.31;5051890;28;20389;-52
2022/10/11 09:46:03;;;;;;;13.57;3.40;;;;;;;15.03;100.00;102620.75;5051794;28;20144;-56
2022/10/11 09:48:39;;;;;;;13.55;3.20;;;;;;;15.23;99.90;102624.09;5050752;28;20045;-56
2022/10/11 09:51:17;;;;;;;13.75;3.10;;;;;;;15.33;98.32;102621.78;5050970;28;20077;-55
2022/10/11 09:53:56;;;;;;;14.55;3.42;;;;;;;15.72;97.54;102625.72;5051867;28;20041;-56
2022/10/11 09:56:26;;;;;;;13.00;3.40;;;;;;;15.74;91.97;102623.81;5051473;28;20045;-56
2022/10/11 09:59:27;;;;;;;11.75;2.75;;;;;;;15.98;94.98;102623.31;5051560;28;20107;-56
2022/10/11 10:02:23;;;;;;;14.02;3.38;;;;;;;16.12;90.23;102626.00;5051827;28;20060;-57
2022/10/11 10:04:56;;;;;;;13.07;3.15;;;;;;;16.34;91.56;102620.22;5005874;28;20413;-56
2022/10/11 10:07:24;;;;;;;14.25;3.35;;;;;;;16.76;92.36;102614.16;5051891;28;20470;-54
2022/10/11 10:09:53;;;;;;;12.38;3.10;;;;;;;17.15;89.94;102625.84;5051793;28;20083;-57
2022/10/11 10:12:23;;;;;;;13.40;2.65;;;;;;;17.54;88.69;102626.81;5050766;28;20060;-56
2022/10/11 10:15:03;;;;;;;11.13;2.55;;;;;;;17.77;86.09;102621.78;5050598;28;20434;-57
2022/10/11 10:17:32;;;;;;;12.38;2.58;;;;;;;17.87;82.34;102620.19;5049286;28;20052;-57
2022/10/11 10:20:00;;;;;;;9.70;2.35;;;;;;;18.37;82.59;102628.31;5051721;28;20103;-56
2022/10/11 10:22:30;;;;;;;11.73;2.47;;;;;;;18.53;78.86;102628.94;5051138;28;20448;-56
2022/10/11 10:25:02;;;;;;;9.15;2.40;;;;;;;18.80;74.22;102614.59;5051415;28;20102;-57
2022/10/11 10:27:31;;;;;;;11.52;2.55;;;;;;;18.85;70.97;102615.09;5050994;28;20458;-57
2022/10/11 10:30:13;;;;;;;8.85;2.20;;;;;;;19.05;70.49;102612.84;5051738;28;20090;-57
2022/10/11 10:32:48;;;;;;;12.57;2.50;;;;;;;19.14;67.07;102606.84;5049736;28;20099;-57
2022/10/11 10:35:28;;;;;;;10.10;2.10;;;;;;;19.70;65.36;102608.88;5051138;28;20495;-57
2022/10/11 10:38:06;;;;;;;8.18;1.90;;;;;;;19.73;63.97;102608.63;5051926;28;20075;-57
2022/10/11 10:40:41;;;;;;;8.77;2.10;;;;;;;19.93;63.63;102609.78;5050996;28;20204;-57
2022/10/11 10:43:15;;;;;;;10.68;2.50;;;;;;;20.06;59.97;102601.66;5050956;28;20044;-56
2022/10/11 10:46:08;;;;;;;9.77;2.13;;;;;;;20.26;60.88;102599.28;5051285;28;20041;-57
2022/10/11 10:48:42;;;;;;;9.73;2.28;;;;;;;20.48;54.30;102610.91;5048610;28;20400;-58
2022/10/11 10:51:41;;;;;;;9.65;2.47;;;;;;;20.92;56.74;102602.00;5050590;28;20057;-57
2022/10/11 10:54:17;;;;;;;9.10;1.80;;;;;;;21.05;56.94;102601.84;5050656;28;20049;-57
2022/10/11 10:56:50;;;;;;;10.20;2.10;;;;;;;20.72;54.54;102595.63;5050775;28;20051;-57
2022/10/11 10:59:38;;;;;;;12.23;2.55;;;;;;;21.12;52.38;102596.84;5050361;28;20045;-55
2022/10/11 11:02:16;;;;;;;13.05;2.33;;;;;;;21.43;52.92;102599.59;5049349;28;20434;-59
2022/10/11 11:05:17;;;;;;;8.35;2.03;;;;;;;21.22;49.70;102592.41;5051343;28;20051;-59
2022/10/11 11:07:53;;;;;;;8.88;2.10;;;;;;;21.70;48.89;102593.78;5050875;28;20097;-59
2022/10/11 11:10:26;;;;;;;8.70;2.00;;;;;;;21.75;48.94;102598.75;5050375;28;20490;-58
2022/10/11 11:13:01;;;;;;;;;;;;;;;21.97;48.26;102594.22;5049902;28;20068;-58
2022/10/11 11:15:38;;;;;;;11.60;2.50;;;;;;;22.11;50.40;102594.72;5050597;28;19925;-58
2022/10/11 11:18:25;;;;;;;13.30;2.53;;;;;;;21.71;49.24;102582.09;5049523;28;20549;-59
2022/10/11 11:21:17;;;;;;;10.88;2.55;;;;;;;22.20;48.06;102586.88;5051566;28;20080;-60
2022/10/11 11:23:52;;;;;;;11.73;2.28;;;;;;;22.42;47.94;102589.38;5050535;28;20045;-58
2022/10/11 11:26:31;;;;;;;10.82;2.58;;;;;;;22.25;45.04;102573.91;5050269;28;20041;-58
2022/10/11 11:29:09;;;;;;;9.27;2.20;;;;;;;22.67;44.98;102563.03;5049097;28;20057;-58
2022/10/11 11:31:53;;;;;;;12.68;2.78;;;;;;;22.83;45.28;102567.88;5050282;28;20052;-58
2022/10/11 11:34:27;;;;;;;8.63;2.10;;;;;;;22.71;44.61;102555.56;5049332;28;20103;-59
2022/10/11 11:36:58;;;;;;;10.52;2.38;;;;;;;22.76;45.42;102558.69;5050420;28;20450;-58
2022/10/11 11:39:30;;;;;;;8.25;2.20;;;;;;;23.11;44.88;102551.94;5049775;28;20048;-58
2022/10/11 11:42:04;;;;;;;13.65;2.30;;;;;;;22.45;44.05;102556.94;5050190;28;20110;-58
2022/10/11 11:44:35;;;;;;;7.00;1.90;;;;;;;22.56;43.81;102545.25;5050613;28;20048;-58
2022/10/11 11:47:09;;;;;;;10.63;2.20;;;;;;;22.36;42.73;102556.91;5049221;28;20048;-59
2022/10/11 11:49:44;;;;;;;11.05;1.77;;;;;;;22.55;41.01;102558.78;5049137;28;20053;-58
2022/10/11 11:52:19;;;;;;;9.57;1.70;;;;;;;22.88;40.61;102544.16;5050141;28;20045;-58